sensor_id;sensor_type;location;lat;lon;timestamp;temperature;humidity
83019;DHT22;72834;40.104;18.336;2023-12-20T00:00:13;8.60;99.90
83019;DHT22;72834;40.104;18.336;2023-12-20T00:02:39;8.50;99.90
83019;DHT22;72834;40.104;18.336;2023-12-20T00:05:06;8.40;99.90
83019;DHT22;72834;40.104;18.336;2023-12-20T00:07:32;8.40;99.90
83019;DHT22;72834;40.104;18.336;2023-12-20T00:09:58;8.50;99.90
83019;DHT22;72834;40.104;18.336;2023-12-20T00:12:24;8.50;99.90
83019;DHT22;72834;40.104;18.336;2023-12-20T00:14:51;8.40;99.90
83019;DHT22;72834;40.104;18.336;2023-12-20T00:17:17;8.30;99.90
83019;DHT22;72834;40.104;18.336;2023-12-20T00:19:43;8.30;99.90
83019;DHT22;72834;40.104;18.336;2023-12-20T00:22:09;8.40;99.90
83019;DHT22;72834;40.104;18.336;2023-12-20T00:24:35;8.40;99.90
83019;DHT22;72834;40.104;18.336;2023-12-20T00:27:02;8.40;99.90
83019;DHT22;72834;40.104;18.336;2023-12-20T00:29:28;8.40;99.90
83019;DHT22;72834;40.104;18.336;2023-12-20T00:31:54;8.50;99.90
83019;DHT22;72834;40.104;18.336;2023-12-20T00:34:20;8.50;99.90
83019;DHT22;72834;40.104;18.336;2023-12-20T00:36:47;8.50;99.90
83019;DHT22;72834;40.104;18.336;2023-12-20T00:39:13;8.60;99.90
83019;DHT22;72834;40.104;18.336;2023-12-20T00:41:39;8.60;99.90
83019;DHT22;72834;40.104;18.336;2023-12-20T00:44:05;8.60;99.90
83019;DHT22;72834;40.104;18.336;2023-12-20T00:46:32;8.30;99.90
83019;DHT22;72834;40.104;18.336;2023-12-20T00:48:58;8.30;99.90
83019;DHT22;72834;40.104;18.336;2023-12-20T00:51:24;8.30;99.90
83019;DHT22;72834;40.104;18.336;2023-12-20T00:53:51;8.20;99.90
83019;DHT22;72834;40.104;18.336;2023-12-20T00:56:21;8.10;99.90
83019;DHT22;72834;40.104;18.336;2023-12-20T00:58:47;8.20;99.90
83019;DHT22;72834;40.104;18.336;2023-12-20T01:01:13;8.30;99.90
83019;DHT22;72834;40.104;18.336;2023-12-20T01:03:39;8.20;99.90
83019;DHT22;72834;40.104;18.336;2023-12-20T01:06:06;8.20;99.90
83019;DHT22;72834;40.104;18.336;2023-12-20T01:08:32;8.20;99.90
83019;DHT22;72834;40.104;18.336;2023-12-20T01:11:00;8.10;99.90
83019;DHT22;72834;40.104;18.336;2023-12-20T01:13:26;8.10;99.90
83019;DHT22;72834;40.104;18.336;2023-12-20T01:15:53;8.00;99.90
83019;DHT22;72834;40.104;18.336;2023-12-20T01:18:19;7.90;99.90
83019;DHT22;72834;40.104;18.336;2023-12-20T01:20:45;7.90;99.90
83019;DHT22;72834;40.104;18.336;2023-12-20T01:23:11;7.90;99.90
83019;DHT22;72834;40.104;18.336;2023-12-20T01:25:38;8.00;99.90
83019;DHT22;72834;40.104;18.336;2023-12-20T01:28:05;8.00;99.90
83019;DHT22;72834;40.104;18.336;2023-12-20T01:30:31;8.00;99.90
83019;DHT22;72834;40.104;18.336;2023-12-20T01:32:59;7.90;99.90
83019;DHT22;72834;40.104;18.336;2023-12-20T01:35:26;7.90;99.90
83019;DHT22;72834;40.104;18.336;2023-12-20T01:37:52;7.80;99.90
83019;DHT22;72834;40.104;18.336;2023-12-20T01:40:23;7.60;99.90
83019;DHT22;72834;40.104;18.336;2023-12-20T01:43:02;7.70;99.90
83019;DHT22;72834;40.104;18.336;2023-12-20T01:45:31;7.70;99.90
83019;DHT22;72834;40.104;18.336;2023-12-20T01:47:58;7.70;99.90
83019;DHT22;72834;40.104;18.336;2023-12-20T01:50:25;7.80;99.90
83019;DHT22;72834;40.104;18.336;2023-12-20T01:52:54;7.80;99.90
83019;DHT22;72834;40.104;18.336;2023-12-20T01:55:24;7.90;99.90
83019;DHT22;72834;40.104;18.336;2023-12-20T01:57:51;7.80;99.90
83019;DHT22;72834;40.104;18.336;2023-12-20T02:03:06;7.80;99.90
83019;DHT22;72834;40.104;18.336;2023-12-20T02:05:35;7.70;99.90
83019;DHT22;72834;40.104;18.336;2023-12-20T02:08:03;7.60;99.90
83019;DHT22;72834;40.104;18.336;2023-12-20T02:10:30;7.60;99.90
83019;DHT22;72834;40.104;18.336;2023-12-20T02:12:56;7.60;99.90
83019;DHT22;72834;40.104;18.336;2023-12-20T02:15:22;7.70;99.90
83019;DHT22;72834;40.104;18.336;2023-12-20T02:17:49;7.60;99.90
83019;DHT22;72834;40.104;18.336;2023-12-20T02:20:15;7.60;99.90
83019;DHT22;72834;40.104;18.336;2023-12-20T02:22:42;7.60;99.90
83019;DHT22;72834;40.104;18.336;2023-12-20T02:25:08;7.70;99.90
83019;DHT22;72834;40.104;18.336;2023-12-20T02:27:35;7.80;99.90
83019;DHT22;72834;40.104;18.336;2023-12-20T02:30:01;7.80;99.90
83019;DHT22;72834;40.104;18.336;2023-12-20T02:32:27;7.80;99.90
83019;DHT22;72834;40.104;18.336;2023-12-20T02:34:55;7.70;99.90
83019;DHT22;72834;40.104;18.336;2023-12-20T02:37:21;7.60;99.90
83019;DHT22;72834;40.104;18.336;2023-12-20T02:39:47;7.50;99.90
83019;DHT22;72834;40.104;18.336;2023-12-20T02:42:14;7.70;99.90
83019;DHT22;72834;40.104;18.336;2023-12-20T02:44:40;7.80;99.90
83019;DHT22;72834;40.104;18.336;2023-12-20T02:47:06;7.60;99.90
83019;DHT22;72834;40.104;18.336;2023-12-20T02:49:32;7.40;99.90
83019;DHT22;72834;40.104;18.336;2023-12-20T02:51:59;7.30;99.90
83019;DHT22;72834;40.104;18.336;2023-12-20T02:54:25;7.40;99.90
83019;DHT22;72834;40.104;18.336;2023-12-20T02:56:51;7.50;99.90
83019;DHT22;72834;40.104;18.336;2023-12-20T02:59:17;7.40;99.90
83019;DHT22;72834;40.104;18.336;2023-12-20T03:01:45;7.50;99.90
83019;DHT22;72834;40.104;18.336;2023-12-20T03:04:14;7.30;99.90
83019;DHT22;72834;40.104;18.336;2023-12-20T03:06:41;7.20;99.90
83019;DHT22;72834;40.104;18.336;2023-12-20T03:09:07;7.20;99.90
83019;DHT22;72834;40.104;18.336;2023-12-20T03:11:34;7.20;99.90
83019;DHT22;72834;40.104;18.336;2023-12-20T03:14:00;7.20;99.90
83019;DHT22;72834;40.104;18.336;2023-12-20T03:16:26;7.20;99.90
83019;DHT22;72834;40.104;18.336;2023-12-20T03:18:53;7.20;99.90
83019;DHT22;72834;40.104;18.336;2023-12-20T03:21:19;7.10;99.90
83019;DHT22;72834;40.104;18.336;2023-12-20T03:23:45;7.00;99.90
83019;DHT22;72834;40.104;18.336;2023-12-20T03:26:12;6.70;99.90
83019;DHT22;72834;40.104;18.336;2023-12-20T03:28:38;6.80;99.90
83019;DHT22;72834;40.104;18.336;2023-12-20T03:31:04;6.80;99.90
83019;DHT22;72834;40.104;18.336;2023-12-20T03:33:30;6.80;99.90
83019;DHT22;72834;40.104;18.336;2023-12-20T03:35:57;7.00;99.90
83019;DHT22;72834;40.104;18.336;2023-12-20T03:38:23;7.00;99.90
83019;DHT22;72834;40.104;18.336;2023-12-20T03:40:52;7.00;99.90
83019;DHT22;72834;40.104;18.336;2023-12-20T03:43:18;7.00;99.90
83019;DHT22;72834;40.104;18.336;2023-12-20T03:45:44;6.90;99.90
83019;DHT22;72834;40.104;18.336;2023-12-20T03:48:11;7.00;99.90
83019;DHT22;72834;40.104;18.336;2023-12-20T03:50:38;7.10;99.90
83019;DHT22;72834;40.104;18.336;2023-12-20T03:53:04;7.10;99.90
83019;DHT22;72834;40.104;18.336;2023-12-20T03:55:30;7.10;99.90
83019;DHT22;72834;40.104;18.336;2023-12-20T03:57:56;7.20;99.90
83019;DHT22;72834;40.104;18.336;2023-12-20T04:00:22;7.10;99.90
83019;DHT22;72834;40.104;18.336;2023-12-20T04:02:49;7.20;99.90
83019;DHT22;72834;40.104;18.336;2023-12-20T04:05:15;7.10;99.90
83019;DHT22;72834;40.104;18.336;2023-12-20T04:07:41;7.10;99.90
83019;DHT22;72834;40.104;18.336;2023-12-20T04:10:08;7.20;99.90
83019;DHT22;72834;40.104;18.336;2023-12-20T04:12:34;7.30;99.90
83019;DHT22;72834;40.104;18.336;2023-12-20T04:15:01;7.30;99.90
83019;DHT22;72834;40.104;18.336;2023-12-20T04:17:27;7.20;99.90
83019;DHT22;72834;40.104;18.336;2023-12-20T04:19:54;7.30;99.90
83019;DHT22;72834;40.104;18.336;2023-12-20T04:22:20;7.40;99.90
83019;DHT22;72834;40.104;18.336;2023-12-20T04:24:46;7.50;99.90
83019;DHT22;72834;40.104;18.336;2023-12-20T04:27:12;7.50;99.90
83019;DHT22;72834;40.104;18.336;2023-12-20T04:29:39;7.50;99.90
83019;DHT22;72834;40.104;18.336;2023-12-20T04:32:05;7.60;99.90
83019;DHT22;72834;40.104;18.336;2023-12-20T04:34:31;7.50;99.90
83019;DHT22;72834;40.104;18.336;2023-12-20T04:36:58;7.40;99.90
83019;DHT22;72834;40.104;18.336;2023-12-20T04:39:24;7.40;99.90
83019;DHT22;72834;40.104;18.336;2023-12-20T04:41:50;7.60;99.90
83019;DHT22;72834;40.104;18.336;2023-12-20T04:44:17;7.60;99.90
83019;DHT22;72834;40.104;18.336;2023-12-20T04:46:43;7.60;99.90
83019;DHT22;72834;40.104;18.336;2023-12-20T04:49:10;7.50;99.90
83019;DHT22;72834;40.104;18.336;2023-12-20T04:51:36;7.30;99.90
83019;DHT22;72834;40.104;18.336;2023-12-20T04:54:04;7.20;99.90
83019;DHT22;72834;40.104;18.336;2023-12-20T04:56:30;7.20;99.90
83019;DHT22;72834;40.104;18.336;2023-12-20T04:58:56;7.20;99.90
83019;DHT22;72834;40.104;18.336;2023-12-20T05:01:22;7.30;99.90
83019;DHT22;72834;40.104;18.336;2023-12-20T05:03:49;7.30;99.90
83019;DHT22;72834;40.104;18.336;2023-12-20T05:06:15;7.40;99.90
83019;DHT22;72834;40.104;18.336;2023-12-20T05:08:41;7.30;99.90
83019;DHT22;72834;40.104;18.336;2023-12-20T05:11:07;7.40;99.90
83019;DHT22;72834;40.104;18.336;2023-12-20T05:13:33;7.40;99.90
83019;DHT22;72834;40.104;18.336;2023-12-20T05:16:00;7.50;99.90
83019;DHT22;72834;40.104;18.336;2023-12-20T05:18:26;7.50;99.90
83019;DHT22;72834;40.104;18.336;2023-12-20T05:20:52;7.50;99.90
83019;DHT22;72834;40.104;18.336;2023-12-20T05:23:19;7.50;99.90
83019;DHT22;72834;40.104;18.336;2023-12-20T05:25:46;7.50;99.90
83019;DHT22;72834;40.104;18.336;2023-12-20T05:28:12;7.40;99.90
83019;DHT22;72834;40.104;18.336;2023-12-20T05:30:38;7.40;99.90
83019;DHT22;72834;40.104;18.336;2023-12-20T05:33:05;7.40;99.90
83019;DHT22;72834;40.104;18.336;2023-12-20T05:35:31;7.30;99.90
83019;DHT22;72834;40.104;18.336;2023-12-20T05:37:57;7.40;99.90
83019;DHT22;72834;40.104;18.336;2023-12-20T05:40:24;7.30;99.90
83019;DHT22;72834;40.104;18.336;2023-12-20T05:42:50;7.20;99.90
83019;DHT22;72834;40.104;18.336;2023-12-20T05:45:16;7.20;99.90
83019;DHT22;72834;40.104;18.336;2023-12-20T05:47:43;7.30;99.90
83019;DHT22;72834;40.104;18.336;2023-12-20T05:50:09;7.30;99.90
83019;DHT22;72834;40.104;18.336;2023-12-20T05:52:36;7.30;99.90
83019;DHT22;72834;40.104;18.336;2023-12-20T05:55:02;7.30;99.90
83019;DHT22;72834;40.104;18.336;2023-12-20T05:57:28;7.40;99.90
83019;DHT22;72834;40.104;18.336;2023-12-20T05:59:54;7.30;99.90
83019;DHT22;72834;40.104;18.336;2023-12-20T06:02:21;7.20;99.90
83019;DHT22;72834;40.104;18.336;2023-12-20T06:04:47;7.00;99.90
83019;DHT22;72834;40.104;18.336;2023-12-20T06:07:15;7.00;99.90
83019;DHT22;72834;40.104;18.336;2023-12-20T06:09:41;6.90;99.90
83019;DHT22;72834;40.104;18.336;2023-12-20T06:12:08;6.90;99.90
83019;DHT22;72834;40.104;18.336;2023-12-20T06:14:34;7.00;99.90
83019;DHT22;72834;40.104;18.336;2023-12-20T06:17:01;7.00;99.90
83019;DHT22;72834;40.104;18.336;2023-12-20T06:19:27;7.00;99.90
83019;DHT22;72834;40.104;18.336;2023-12-20T06:21:54;7.10;99.90
83019;DHT22;72834;40.104;18.336;2023-12-20T06:24:20;7.10;99.90
83019;DHT22;72834;40.104;18.336;2023-12-20T06:26:47;7.10;99.90
83019;DHT22;72834;40.104;18.336;2023-12-20T06:29:14;6.90;99.90
83019;DHT22;72834;40.104;18.336;2023-12-20T06:31:40;6.90;99.90
83019;DHT22;72834;40.104;18.336;2023-12-20T06:34:06;6.90;99.90
83019;DHT22;72834;40.104;18.336;2023-12-20T06:36:32;7.00;99.90
83019;DHT22;72834;40.104;18.336;2023-12-20T06:38:58;7.00;99.90
83019;DHT22;72834;40.104;18.336;2023-12-20T06:41:25;7.00;99.90
83019;DHT22;72834;40.104;18.336;2023-12-20T06:43:51;7.00;99.90
83019;DHT22;72834;40.104;18.336;2023-12-20T06:46:19;7.00;99.90
83019;DHT22;72834;40.104;18.336;2023-12-20T06:48:45;7.10;99.90
83019;DHT22;72834;40.104;18.336;2023-12-20T06:51:16;7.10;99.90
83019;DHT22;72834;40.104;18.336;2023-12-20T06:53:43;7.20;99.90
83019;DHT22;72834;40.104;18.336;2023-12-20T06:56:11;7.20;99.90
83019;DHT22;72834;40.104;18.336;2023-12-20T06:58:40;7.20;99.90
83019;DHT22;72834;40.104;18.336;2023-12-20T07:01:14;7.20;99.90
83019;DHT22;72834;40.104;18.336;2023-12-20T07:03:40;7.20;99.90
83019;DHT22;72834;40.104;18.336;2023-12-20T07:06:08;7.20;99.90
83019;DHT22;72834;40.104;18.336;2023-12-20T07:08:34;7.30;99.90
83019;DHT22;72834;40.104;18.336;2023-12-20T07:11:00;7.40;99.90
83019;DHT22;72834;40.104;18.336;2023-12-20T07:13:27;7.50;99.90
83019;DHT22;72834;40.104;18.336;2023-12-20T07:15:53;7.60;99.90
83019;DHT22;72834;40.104;18.336;2023-12-20T07:18:19;7.60;99.90
83019;DHT22;72834;40.104;18.336;2023-12-20T07:20:45;7.70;99.90
83019;DHT22;72834;40.104;18.336;2023-12-20T07:23:11;7.70;99.90
83019;DHT22;72834;40.104;18.336;2023-12-20T07:25:38;7.80;99.90
83019;DHT22;72834;40.104;18.336;2023-12-20T07:28:04;7.70;99.90
83019;DHT22;72834;40.104;18.336;2023-12-20T07:30:30;7.80;99.90
83019;DHT22;72834;40.104;18.336;2023-12-20T07:32:57;7.90;99.90
83019;DHT22;72834;40.104;18.336;2023-12-20T07:35:23;8.00;99.90
83019;DHT22;72834;40.104;18.336;2023-12-20T07:37:51;8.10;99.90
83019;DHT22;72834;40.104;18.336;2023-12-20T07:40:17;8.10;99.90
83019;DHT22;72834;40.104;18.336;2023-12-20T07:42:44;8.30;99.90
83019;DHT22;72834;40.104;18.336;2023-12-20T07:45:10;8.20;99.90
83019;DHT22;72834;40.104;18.336;2023-12-20T07:47:37;8.20;99.90
83019;DHT22;72834;40.104;18.336;2023-12-20T07:50:04;8.20;99.90
83019;DHT22;72834;40.104;18.336;2023-12-20T07:52:30;8.20;99.90
83019;DHT22;72834;40.104;18.336;2023-12-20T07:54:57;8.20;99.90
83019;DHT22;72834;40.104;18.336;2023-12-20T07:57:23;8.30;99.90
83019;DHT22;72834;40.104;18.336;2023-12-20T07:59:50;8.40;99.90
83019;DHT22;72834;40.104;18.336;2023-12-20T08:02:16;8.50;99.90
83019;DHT22;72834;40.104;18.336;2023-12-20T08:04:42;8.60;99.90
83019;DHT22;72834;40.104;18.336;2023-12-20T08:07:09;8.70;99.90
83019;DHT22;72834;40.104;18.336;2023-12-20T08:09:35;8.80;99.90
83019;DHT22;72834;40.104;18.336;2023-12-20T08:12:03;8.90;99.90
83019;DHT22;72834;40.104;18.336;2023-12-20T08:14:29;9.10;99.90
83019;DHT22;72834;40.104;18.336;2023-12-20T08:16:55;9.20;99.90
83019;DHT22;72834;40.104;18.336;2023-12-20T08:19:21;9.20;99.90
83019;DHT22;72834;40.104;18.336;2023-12-20T08:21:48;9.20;99.90
83019;DHT22;72834;40.104;18.336;2023-12-20T08:24:14;9.40;99.90
83019;DHT22;72834;40.104;18.336;2023-12-20T08:26:40;9.40;99.90
83019;DHT22;72834;40.104;18.336;2023-12-20T08:29:06;9.40;99.90
83019;DHT22;72834;40.104;18.336;2023-12-20T08:31:33;9.40;99.90
83019;DHT22;72834;40.104;18.336;2023-12-20T08:33:59;9.50;99.90
83019;DHT22;72834;40.104;18.336;2023-12-20T08:36:25;9.50;99.90
83019;DHT22;72834;40.104;18.336;2023-12-20T08:38:51;9.50;99.90
83019;DHT22;72834;40.104;18.336;2023-12-20T08:41:18;9.60;99.90
83019;DHT22;72834;40.104;18.336;2023-12-20T08:43:44;9.70;99.90
83019;DHT22;72834;40.104;18.336;2023-12-20T08:46:11;9.90;99.90
83019;DHT22;72834;40.104;18.336;2023-12-20T08:48:38;9.90;99.90
83019;DHT22;72834;40.104;18.336;2023-12-20T08:51:05;10.00;99.90
83019;DHT22;72834;40.104;18.336;2023-12-20T08:53:34;10.00;99.90
83019;DHT22;72834;40.104;18.336;2023-12-20T08:56:01;10.10;99.90
83019;DHT22;72834;40.104;18.336;2023-12-20T08:58:28;10.20;99.90
83019;DHT22;72834;40.104;18.336;2023-12-20T09:00:54;10.20;99.90
83019;DHT22;72834;40.104;18.336;2023-12-20T09:03:21;10.20;99.90
83019;DHT22;72834;40.104;18.336;2023-12-20T09:05:47;10.40;99.90
83019;DHT22;72834;40.104;18.336;2023-12-20T09:08:13;10.50;99.90
83019;DHT22;72834;40.104;18.336;2023-12-20T09:10:39;10.50;99.90
83019;DHT22;72834;40.104;18.336;2023-12-20T09:13:05;10.40;99.90
83019;DHT22;72834;40.104;18.336;2023-12-20T09:15:32;10.40;99.90
83019;DHT22;72834;40.104;18.336;2023-12-20T09:18:00;10.50;99.90
83019;DHT22;72834;40.104;18.336;2023-12-20T09:20:26;10.50;99.90
83019;DHT22;72834;40.104;18.336;2023-12-20T09:22:53;10.50;99.90
83019;DHT22;72834;40.104;18.336;2023-12-20T09:25:19;10.60;99.90
83019;DHT22;72834;40.104;18.336;2023-12-20T09:27:46;10.60;99.90
83019;DHT22;72834;40.104;18.336;2023-12-20T09:30:12;10.70;99.90
83019;DHT22;72834;40.104;18.336;2023-12-20T09:32:38;10.80;99.90
83019;DHT22;72834;40.104;18.336;2023-12-20T09:35:05;10.90;99.90
83019;DHT22;72834;40.104;18.336;2023-12-20T09:37:32;11.00;99.90
83019;DHT22;72834;40.104;18.336;2023-12-20T09:39:58;11.00;99.90
83019;DHT22;72834;40.104;18.336;2023-12-20T09:45:09;11.00;99.90
83019;DHT22;72834;40.104;18.336;2023-12-20T09:47:36;11.10;99.90
83019;DHT22;72834;40.104;18.336;2023-12-20T09:50:03;11.10;99.90
83019;DHT22;72834;40.104;18.336;2023-12-20T09:52:29;11.20;99.90
83019;DHT22;72834;40.104;18.336;2023-12-20T09:54:57;11.20;99.90
83019;DHT22;72834;40.104;18.336;2023-12-20T09:57:23;11.30;99.90
83019;DHT22;72834;40.104;18.336;2023-12-20T09:59:50;11.30;99.90
83019;DHT22;72834;40.104;18.336;2023-12-20T10:02:17;11.40;99.90
83019;DHT22;72834;40.104;18.336;2023-12-20T10:04:47;11.50;99.90
83019;DHT22;72834;40.104;18.336;2023-12-20T10:07:14;11.60;99.90
83019;DHT22;72834;40.104;18.336;2023-12-20T10:09:41;11.70;99.90
83019;DHT22;72834;40.104;18.336;2023-12-20T10:12:08;11.70;99.90
83019;DHT22;72834;40.104;18.336;2023-12-20T10:14:34;11.90;99.90
83019;DHT22;72834;40.104;18.336;2023-12-20T10:17:04;12.00;99.90
83019;DHT22;72834;40.104;18.336;2023-12-20T10:19:31;12.20;99.90
83019;DHT22;72834;40.104;18.336;2023-12-20T10:22:01;12.30;99.90
83019;DHT22;72834;40.104;18.336;2023-12-20T10:24:30;12.50;99.90
83019;DHT22;72834;40.104;18.336;2023-12-20T10:27:04;12.60;99.90
83019;DHT22;72834;40.104;18.336;2023-12-20T10:29:37;12.70;99.90
83019;DHT22;72834;40.104;18.336;2023-12-20T10:32:27;12.80;99.90
83019;DHT22;72834;40.104;18.336;2023-12-20T10:34:54;12.80;99.90
83019;DHT22;72834;40.104;18.336;2023-12-20T10:37:21;12.90;99.90
83019;DHT22;72834;40.104;18.336;2023-12-20T10:39:51;13.00;99.90
83019;DHT22;72834;40.104;18.336;2023-12-20T10:42:22;13.10;99.90
83019;DHT22;72834;40.104;18.336;2023-12-20T10:44:51;13.10;99.90
83019;DHT22;72834;40.104;18.336;2023-12-20T10:47:20;13.20;99.90
83019;DHT22;72834;40.104;18.336;2023-12-20T10:49:46;13.30;99.90
83019;DHT22;72834;40.104;18.336;2023-12-20T10:52:14;13.30;99.90
83019;DHT22;72834;40.104;18.336;2023-12-20T10:54:40;13.40;99.90
83019;DHT22;72834;40.104;18.336;2023-12-20T10:57:07;13.50;99.90
83019;DHT22;72834;40.104;18.336;2023-12-20T10:59:36;13.50;99.90
83019;DHT22;72834;40.104;18.336;2023-12-20T11:02:03;13.60;99.90
83019;DHT22;72834;40.104;18.336;2023-12-20T11:04:47;13.60;99.90
83019;DHT22;72834;40.104;18.336;2023-12-20T11:07:28;13.60;99.90
83019;DHT22;72834;40.104;18.336;2023-12-20T11:10:03;13.70;99.90
83019;DHT22;72834;40.104;18.336;2023-12-20T11:13:28;13.70;99.90
83019;DHT22;72834;40.104;18.336;2023-12-20T11:15:28;13.70;99.90
83019;DHT22;72834;40.104;18.336;2023-12-20T11:17:59;13.70;99.90
83019;DHT22;72834;40.104;18.336;2023-12-20T11:20:39;13.70;99.90
83019;DHT22;72834;40.104;18.336;2023-12-20T11:23:06;13.80;99.90
83019;DHT22;72834;40.104;18.336;2023-12-20T11:25:55;13.80;99.90
83019;DHT22;72834;40.104;18.336;2023-12-20T11:28:25;13.80;99.90
83019;DHT22;72834;40.104;18.336;2023-12-20T11:30:53;13.80;99.90
83019;DHT22;72834;40.104;18.336;2023-12-20T11:33:25;13.80;99.90
83019;DHT22;72834;40.104;18.336;2023-12-20T11:35:52;13.80;99.90
83019;DHT22;72834;40.104;18.336;2023-12-20T11:38:21;13.80;99.90
83019;DHT22;72834;40.104;18.336;2023-12-20T11:40:51;13.80;99.90
83019;DHT22;72834;40.104;18.336;2023-12-20T11:43:34;13.80;99.90
83019;DHT22;72834;40.104;18.336;2023-12-20T11:46:05;13.80;99.90
83019;DHT22;72834;40.104;18.336;2023-12-20T11:48:39;13.90;99.90
83019;DHT22;72834;40.104;18.336;2023-12-20T11:51:11;13.90;99.90
83019;DHT22;72834;40.104;18.336;2023-12-20T11:53:38;14.00;99.90
83019;DHT22;72834;40.104;18.336;2023-12-20T11:56:06;14.00;99.90
83019;DHT22;72834;40.104;18.336;2023-12-20T11:58:36;14.00;99.90
83019;DHT22;72834;40.104;18.336;2023-12-20T12:01:03;14.00;99.90
83019;DHT22;72834;40.104;18.336;2023-12-20T12:03:30;14.00;99.90
83019;DHT22;72834;40.104;18.336;2023-12-20T12:05:57;14.00;99.90
83019;DHT22;72834;40.104;18.336;2023-12-20T12:08:24;14.10;99.90
83019;DHT22;72834;40.104;18.336;2023-12-20T12:10:50;14.10;99.90
83019;DHT22;72834;40.104;18.336;2023-12-20T12:13:16;14.10;99.90
83019;DHT22;72834;40.104;18.336;2023-12-20T12:15:43;14.10;99.90
83019;DHT22;72834;40.104;18.336;2023-12-20T12:18:10;14.10;99.90
83019;DHT22;72834;40.104;18.336;2023-12-20T12:20:36;14.10;99.90
83019;DHT22;72834;40.104;18.336;2023-12-20T12:23:04;14.10;99.90
83019;DHT22;72834;40.104;18.336;2023-12-20T12:25:32;14.10;99.90
83019;DHT22;72834;40.104;18.336;2023-12-20T12:27:59;14.10;99.90
83019;DHT22;72834;40.104;18.336;2023-12-20T12:30:26;14.20;99.90
83019;DHT22;72834;40.104;18.336;2023-12-20T12:32:56;14.20;99.90
83019;DHT22;72834;40.104;18.336;2023-12-20T12:35:23;14.30;99.90
83019;DHT22;72834;40.104;18.336;2023-12-20T12:37:51;14.30;99.90
83019;DHT22;72834;40.104;18.336;2023-12-20T12:40:18;14.20;99.90
83019;DHT22;72834;40.104;18.336;2023-12-20T12:42:46;14.20;99.90
83019;DHT22;72834;40.104;18.336;2023-12-20T12:45:12;14.30;99.90
83019;DHT22;72834;40.104;18.336;2023-12-20T12:47:39;14.20;99.90
83019;DHT22;72834;40.104;18.336;2023-12-20T12:50:05;14.30;99.90
83019;DHT22;72834;40.104;18.336;2023-12-20T12:52:32;14.30;99.90
83019;DHT22;72834;40.104;18.336;2023-12-20T12:54:58;14.30;99.90
83019;DHT22;72834;40.104;18.336;2023-12-20T12:57:25;14.40;99.90
83019;DHT22;72834;40.104;18.336;2023-12-20T12:59:51;14.40;99.90
83019;DHT22;72834;40.104;18.336;2023-12-20T13:02:17;14.30;99.90
83019;DHT22;72834;40.104;18.336;2023-12-20T13:04:44;14.30;99.90
83019;DHT22;72834;40.104;18.336;2023-12-20T13:07:11;14.20;99.90
83019;DHT22;72834;40.104;18.336;2023-12-20T13:09:37;14.20;99.90
83019;DHT22;72834;40.104;18.336;2023-12-20T13:12:05;14.20;99.90
83019;DHT22;72834;40.104;18.336;2023-12-20T13:14:34;14.20;99.90
83019;DHT22;72834;40.104;18.336;2023-12-20T13:17:04;14.20;99.90
83019;DHT22;72834;40.104;18.336;2023-12-20T13:19:30;14.20;99.90
83019;DHT22;72834;40.104;18.336;2023-12-20T13:21:57;14.20;99.90
83019;DHT22;72834;40.104;18.336;2023-12-20T13:24:26;14.20;99.90
83019;DHT22;72834;40.104;18.336;2023-12-20T13:26:53;14.20;99.90
83019;DHT22;72834;40.104;18.336;2023-12-20T13:29:19;14.20;99.90
83019;DHT22;72834;40.104;18.336;2023-12-20T13:31:45;14.30;99.90
83019;DHT22;72834;40.104;18.336;2023-12-20T13:34:12;14.30;99.90
83019;DHT22;72834;40.104;18.336;2023-12-20T13:36:38;14.30;99.90
83019;DHT22;72834;40.104;18.336;2023-12-20T13:39:04;14.30;99.90
83019;DHT22;72834;40.104;18.336;2023-12-20T13:41:31;14.30;99.90
83019;DHT22;72834;40.104;18.336;2023-12-20T13:43:58;14.30;99.90
83019;DHT22;72834;40.104;18.336;2023-12-20T13:46:24;14.30;99.90
83019;DHT22;72834;40.104;18.336;2023-12-20T13:48:50;14.30;99.90
83019;DHT22;72834;40.104;18.336;2023-12-20T13:51:16;14.30;99.90
83019;DHT22;72834;40.104;18.336;2023-12-20T13:53:42;14.30;99.90
83019;DHT22;72834;40.104;18.336;2023-12-20T13:56:09;14.30;99.90
83019;DHT22;72834;40.104;18.336;2023-12-20T13:58:35;14.30;99.90
83019;DHT22;72834;40.104;18.336;2023-12-20T14:01:01;14.30;99.90
83019;DHT22;72834;40.104;18.336;2023-12-20T14:03:27;14.30;99.90
83019;DHT22;72834;40.104;18.336;2023-12-20T14:05:54;14.20;99.90
83019;DHT22;72834;40.104;18.336;2023-12-20T14:08:20;14.30;99.90
83019;DHT22;72834;40.104;18.336;2023-12-20T14:10:47;14.30;99.90
83019;DHT22;72834;40.104;18.336;2023-12-20T14:13:13;14.30;99.90
83019;DHT22;72834;40.104;18.336;2023-12-20T14:15:39;14.30;99.90
83019;DHT22;72834;40.104;18.336;2023-12-20T14:18:06;14.30;99.90
83019;DHT22;72834;40.104;18.336;2023-12-20T14:20:34;14.20;99.90
83019;DHT22;72834;40.104;18.336;2023-12-20T14:23:04;14.20;99.90
83019;DHT22;72834;40.104;18.336;2023-12-20T14:25:30;14.20;99.90
83019;DHT22;72834;40.104;18.336;2023-12-20T14:27:59;14.20;99.90
83019;DHT22;72834;40.104;18.336;2023-12-20T14:30:26;14.20;99.90
83019;DHT22;72834;40.104;18.336;2023-12-20T14:32:52;14.20;99.90
83019;DHT22;72834;40.104;18.336;2023-12-20T14:35:19;14.20;99.90
83019;DHT22;72834;40.104;18.336;2023-12-20T14:37:45;14.20;99.90
83019;DHT22;72834;40.104;18.336;2023-12-20T14:40:12;14.10;99.90
83019;DHT22;72834;40.104;18.336;2023-12-20T14:42:43;14.10;99.90
83019;DHT22;72834;40.104;18.336;2023-12-20T14:45:10;14.00;99.90
83019;DHT22;72834;40.104;18.336;2023-12-20T14:47:36;14.00;99.90
83019;DHT22;72834;40.104;18.336;2023-12-20T14:50:04;14.00;99.90
83019;DHT22;72834;40.104;18.336;2023-12-20T14:52:31;13.90;99.90
83019;DHT22;72834;40.104;18.336;2023-12-20T14:54:58;13.90;99.90
83019;DHT22;72834;40.104;18.336;2023-12-20T14:57:24;13.80;99.90
83019;DHT22;72834;40.104;18.336;2023-12-20T14:59:50;13.80;99.90
83019;DHT22;72834;40.104;18.336;2023-12-20T15:02:16;13.80;99.90
83019;DHT22;72834;40.104;18.336;2023-12-20T15:04:43;13.80;99.90
83019;DHT22;72834;40.104;18.336;2023-12-20T15:07:10;13.80;99.90
83019;DHT22;72834;40.104;18.336;2023-12-20T15:09:36;13.70;99.90
83019;DHT22;72834;40.104;18.336;2023-12-20T15:12:02;13.70;99.90
83019;DHT22;72834;40.104;18.336;2023-12-20T15:14:29;13.70;99.90
83019;DHT22;72834;40.104;18.336;2023-12-20T15:16:55;13.60;99.90
83019;DHT22;72834;40.104;18.336;2023-12-20T15:19:22;13.60;99.90
83019;DHT22;72834;40.104;18.336;2023-12-20T15:21:48;13.60;99.90
83019;DHT22;72834;40.104;18.336;2023-12-20T15:24:16;13.50;99.90
83019;DHT22;72834;40.104;18.336;2023-12-20T15:26:46;13.50;99.90
83019;DHT22;72834;40.104;18.336;2023-12-20T15:29:12;13.50;99.90